Time;durP1;ratioP1;P1;durP2;ratioP2;P2;SDS_P1;SDS_P2;PMS_P1;PMS_P2;Temp;Humidity;BMP_temperature;BMP_pressure;BME280_temperature;BME280_humidity;BME280_pressure;Samples;Min_cycle;Max_cycle;Signal;HPM_P1;HPM_P2
2023/11/28 00:02:03;;;;;;;;;;;;;;;;;;6297205;28;19935;-83
2023/11/28 00:05:03;;;;;;;;;;;;;;;;;;6286979;28;20467;-82
2023/11/28 00:08:03;;;;;;;;;;;;;;;;;;6287012;28;20369;-82
2023/11/28 00:11:03;;;;;;;;;;;;;;;;;;6301770;28;20448;-82
2023/11/28 00:14:03;;;;;;;;;;;;;;;;;;6303812;28;20407;-82
2023/11/28 00:17:03;;;;;;;;;;;;;;;;;;6309538;28;20381;-82
2023/11/28 00:20:03;;;;;;;;;;;;;;;;;;6309359;28;20354;-83
2023/11/28 00:23:03;;;;;;;;;;;;;;;;;;6319080;28;20356;-82
2023/11/28 00:26:03;;;;;;;;;;;;;;;;;;6306907;28;19919;-83
2023/11/28 00:29:04;;;;;;;;;;;;;;;;;;5970728;28;10000118;-83
2023/11/28 00:32:04;;;;;;;;;;;;;;;;;;6315134;28;19950;-84
2023/11/28 00:35:04;;;;;;;;;;;;;;;;;;6319340;28;19920;-84
2023/11/28 00:38:04;;;;;;;;;;;;;;;;;;6305175;28;19920;-84
2023/11/28 00:41:05;;;;;;;;;;;;;;;;;;6297714;28;19912;-84
2023/11/28 00:44:05;;;;;;;;;;;;;;;;;;6321867;28;19916;-84
2023/11/28 00:47:06;;;;;;;;;;;;;;;;;;6292026;28;19909;-84
2023/11/28 00:50:06;;;;;;;;;;;;;;;;;;6299116;28;20384;-84
2023/11/28 00:53:06;;;;;;;;;;;;;;;;;;6303724;28;19923;-84
2023/11/28 00:56:06;;;;;;;;;;;;;;;;;;6297300;28;19916;-84
2023/11/28 00:59:06;;;;;;;;;;;;;;;;;;6297135;28;19916;-84
2023/11/28 01:02:14;;;;;;;;;;;;;;;;;;6201758;28;10000157;-84
2023/11/28 01:05:14;;;;;;;;;;;;;;;;;;6322033;28;19973;-84
2023/11/28 01:08:14;;;;;;;;;;;;;;;;;;6317603;28;19927;-84
2023/11/28 01:11:15;;;;;;;;;;;;;;;;;;6307387;28;19908;-83
2023/11/28 01:14:15;;;;;;;;;;;;;;;;;;6313047;28;19943;-83
2023/11/28 01:17:15;;;;;;;;;;;;;;;;;;6300968;28;19912;-84
2023/11/28 01:20:15;;;;;;;;;;;;;;;;;;6326219;28;20485;-84
2023/11/28 01:23:16;;;;;;;;;;;;;;;;;;6323254;28;19914;-84
2023/11/28 01:26:16;;;;;;;;;;;;;;;;;;6321189;28;20336;-84
2023/11/28 01:29:16;;;;;;;;;;;;;;;;;;6324735;28;19939;-84
2023/11/28 01:32:16;;;;;;;;;;;;;;;;;;6291350;28;19927;-84
2023/11/28 01:35:16;;;;;;;;;;;;;;;;;;6301163;28;20349;-84
2023/11/28 01:38:16;;;;;;;;;;;;;;;;;;6306015;28;19998;-84
2023/11/28 01:41:16;;;;;;;;;;;;;;;;;;6306660;28;20002;-84
2023/11/28 01:44:17;;;;;;;;;;;;;;;;;;6298607;28;19909;-84
2023/11/28 01:47:17;;;;;;;;;;;;;;;;;;6296282;28;19913;-84
2023/11/28 01:50:17;;;;;;;;;;;;;;;;;;6306393;28;19912;-84
2023/11/28 01:53:17;;;;;;;;;;;;;;;;;;6305393;28;19917;-84
2023/11/28 01:56:17;;;;;;;;;;;;;;;;;;6306456;28;19984;-84
2023/11/28 01:59:17;;;;;;;;;;;;;;;;;;6321747;28;19908;-84
2023/11/28 02:02:17;;;;;;;;;;;;;;;;;;6290047;28;20399;-84
2023/11/28 02:05:18;;;;;;;;;;;;;;;;;;6304747;28;20382;-84
2023/11/28 02:08:19;;;;;;;;;;;;;;;;;;6323384;28;20018;-84
2023/11/28 02:11:19;;;;;;;;;;;;;;;;;;6318103;28;20365;-84
2023/11/28 02:14:19;;;;;;;;;;;;;;;;;;6316991;28;19979;-84
2023/11/28 02:17:19;;;;;;;;;;;;;;;;;;6316191;28;19962;-84
2023/11/28 02:20:19;;;;;;;;;;;;;;;;;;6320811;28;19931;-84
2023/11/28 02:23:19;;;;;;;;;;;;;;;;;;6298063;28;20281;-84
2023/11/28 02:26:20;;;;;;;;;;;;;;;;;;6319137;28;20276;-84
2023/11/28 02:29:20;;;;;;;;;;;;;;;;;;6319465;28;20438;-84
2023/11/28 02:32:20;;;;;;;;;;;;;;;;;;6308313;28;19920;-85
2023/11/28 02:35:20;;;;;;;;;;;;;;;;;;6322783;28;19915;-84
2023/11/28 02:38:20;;;;;;;;;;;;;;;;;;6322289;28;20308;-84
2023/11/28 02:41:20;;;;;;;;;;;;;;;;;;6316737;28;20262;-84
2023/11/28 02:44:20;;;;;;;;;;;;;;;;;;6298084;28;20337;-84
2023/11/28 02:47:20;;;;;;;;;;;;;;;;;;6313270;28;19916;-84
2023/11/28 02:50:21;;;;;;;;;;;;;;;;;;6308745;28;20000;-83
2023/11/28 02:53:21;;;;;;;;;;;;;;;;;;6299093;28;19909;-84
2023/11/28 02:56:21;;;;;;;;;;;;;;;;;;6296885;28;19909;-84
2023/11/28 02:59:21;;;;;;;;;;;;;;;;;;6300150;28;19920;-84
2023/11/28 03:02:21;;;;;;;;;;;;;;;;;;6298313;28;19913;-85
2023/11/28 03:05:21;;;;;;;;;;;;;;;;;;5967683;27;10000530;-84
2023/11/28 03:08:21;;;;;;;;;;;;;;;;;;6322158;28;19922;-84
2023/11/28 03:11:22;;;;;;;;;;;;;;;;;;6319388;28;20360;-84
2023/11/28 03:14:23;;;;;;;;;;;;;;;;;;6305071;28;20322;-84
2023/11/28 03:17:24;;;;;;;;;;;;;;;;;;6312309;28;20367;-84
2023/11/28 03:20:24;;;;;;;;;;;;;;;;;;6316935;28;19923;-84
2023/11/28 03:23:24;;;;;;;;;;;;;;;;;;6310276;28;20314;-84
2023/11/28 03:26:24;;;;;;;;;;;;;;;;;;6299554;28;19916;-84
2023/11/28 03:29:24;;;;;;;;;;;;;;;;;;6300461;28;19924;-84
2023/11/28 03:32:24;;;;;;;;;;;;;;;;;;6299074;28;20332;-85
2023/11/28 03:35:27;;;;;;;;;;;;;;;;;;6326235;28;20368;-84
2023/11/28 03:38:27;;;;;;;;;;;;;;;;;;6313018;28;19915;-84
2023/11/28 03:41:27;;;;;;;;;;;;;;;;;;6311009;28;19920;-84
2023/11/28 03:44:27;;;;;;;;;;;;;;;;;;6317889;28;19908;-84
2023/11/28 03:47:27;;;;;;;;;;;;;;;;;;6315024;28;20234;-84
2023/11/28 03:50:27;;;;;;;;;;;;;;;;;;6318320;28;20365;-84
2023/11/28 03:53:28;;;;;;;;;;;;;;;;;;6322954;28;19920;-84
2023/11/28 03:56:28;;;;;;;;;;;;;;;;;;6301153;28;20321;-84
2023/11/28 03:59:28;;;;;;;;;;;;;;;;;;6302332;28;20337;-85
2023/11/28 04:02:28;;;;;;;;;;;;;;;;;;6298280;28;19919;-84
2023/11/28 04:05:28;;;;;;;;;;;;;;;;;;6298637;28;19935;-84
2023/11/28 04:08:29;;;;;;;;;;;;;;;;;;6299282;28;19921;-84
2023/11/28 04:11:29;;;;;;;;;;;;;;;;;;6304947;28;19912;-84
2023/11/28 04:14:29;;;;;;;;;;;;;;;;;;6305182;28;19923;-84
2023/11/28 04:17:29;;;;;;;;;;;;;;;;;;6300233;28;19921;-84
2023/11/28 04:20:29;;;;;;;;;;;;;;;;;;6300240;28;19916;-84
2023/11/28 04:23:29;;;;;;;;;;;;;;;;;;6298538;28;19912;-84
2023/11/28 04:26:29;;;;;;;;;;;;;;;;;;6306481;28;19920;-84
2023/11/28 04:29:30;;;;;;;;;;;;;;;;;;6307850;28;19974;-84
2023/11/28 04:32:30;;;;;;;;;;;;;;;;;;6297536;28;19920;-84
2023/11/28 04:35:30;;;;;;;;;;;;;;;;;;6283679;28;19923;-84
2023/11/28 04:38:30;;;;;;;;;;;;;;;;;;6301655;28;19916;-85
2023/11/28 04:41:30;;;;;;;;;;;;;;;;;;6301717;28;19920;-84
2023/11/28 04:44:31;;;;;;;;;;;;;;;;;;6297918;28;20261;-84
2023/11/28 04:47:32;;;;;;;;;;;;;;;;;;6298449;28;19935;-85
2023/11/28 04:50:32;;;;;;;;;;;;;;;;;;6298765;28;20282;-84
2023/11/28 04:53:32;;;;;;;;;;;;;;;;;;6297007;28;20369;-84
2023/11/28 04:56:32;;;;;;;;;;;;;;;;;;6283840;28;19912;-84
2023/11/28 04:59:32;;;;;;;;;;;;;;;;;;6299385;28;19947;-84
2023/11/28 05:02:33;;;;;;;;;;;;;;;;;;6304387;28;19912;-85
2023/11/28 05:05:34;;;;;;;;;;;;;;;;;;6300482;28;20360;-84
2023/11/28 05:08:34;;;;;;;;;;;;;;;;;;6302690;28;19974;-84
2023/11/28 05:11:34;;;;;;;;;;;;;;;;;;6307157;28;19924;-84
2023/11/28 05:14:36;;;;;;;;;;;;;;;;;;6288806;28;20014;-85
2023/11/28 05:17:36;;;;;;;;;;;;;;;;;;6299537;28;19912;-84
2023/11/28 05:20:36;;;;;;;;;;;;;;;;;;6297222;28;19939;-84
2023/11/28 05:23:36;;;;;;;;;;;;;;;;;;6299335;28;19912;-84
2023/11/28 05:26:36;;;;;;;;;;;;;;;;;;6299779;28;19917;-84
2023/11/28 05:29:36;;;;;;;;;;;;;;;;;;6299961;28;19928;-83
2023/11/28 05:32:36;;;;;;;;;;;;;;;;;;6296052;28;19912;-83
2023/11/28 05:35:37;;;;;;;;;;;;;;;;;;6303628;28;20097;-83
2023/11/28 05:38:37;;;;;;;;;;;;;;;;;;6307033;28;19912;-83
2023/11/28 05:41:37;;;;;;;;;;;;;;;;;;6304715;28;19916;-83
2023/11/28 05:44:37;;;;;;;;;;;;;;;;;;6296191;28;19913;-83
2023/11/28 05:47:37;;;;;;;;;;;;;;;;;;6296202;28;19912;-83
2023/11/28 05:50:37;;;;;;;;;;;;;;;;;;6298527;28;20008;-83
2023/11/28 05:53:37;;;;;;;;;;;;;;;;;;6299736;28;20030;-83
2023/11/28 05:56:37;;;;;;;;;;;;;;;;;;6288187;28;19956;-83
2023/11/28 05:59:38;;;;;;;;;;;;;;;;;;6279751;28;19966;-83
2023/11/28 06:02:38;;;;;;;;;;;;;;;;;;6299353;28;20422;-83
2023/11/28 06:05:38;;;;;;;;;;;;;;;;;;6283736;28;19938;-83
2023/11/28 06:08:38;;;;;;;;;;;;;;;;;;6301162;28;20373;-83
2023/11/28 06:11:38;;;;;;;;;;;;;;;;;;6305166;28;20377;-83
2023/11/28 06:14:38;;;;;;;;;;;;;;;;;;6303167;28;20392;-83
2023/11/28 06:17:39;;;;;;;;;;;;;;;;;;6296164;28;19912;-83
2023/11/28 06:20:39;;;;;;;;;;;;;;;;;;6302417;28;19973;-83
2023/11/28 06:23:39;;;;;;;;;;;;;;;;;;6298078;28;19920;-81
2023/11/28 06:26:39;;;;;;;;;;;;;;;;;;6304747;28;19912;-81
2023/11/28 06:29:43;;;;;;;;;;;;;;;;;;6293078;28;20237;-82
2023/11/28 06:32:43;;;;;;;;;;;;;;;;;;6295793;28;19969;-82
2023/11/28 06:35:43;;;;;;;;;;;;;;;;;;6295060;28;19920;-82
2023/11/28 06:38:44;;;;;;;;;;;;;;;;;;6301729;28;19912;-82
2023/11/28 06:41:45;;;;;;;;;;;;;;;;;;6306381;28;20003;-82
2023/11/28 06:44:45;;;;;;;;;;;;;;;;;;6301797;28;19942;-82
2023/11/28 06:47:45;;;;;;;;;;;;;;;;;;6302936;28;19990;-82
2023/11/28 06:50:45;;;;;;;;;;;;;;;;;;6297935;28;19920;-80
2023/11/28 06:53:45;;;;;;;;;;;;;;;;;;6298047;28;19912;-82
2023/11/28 06:56:45;;;;;;;;;;;;;;;;;;6301576;28;19978;-82
2023/11/28 06:59:45;;;;;;;;;;;;;;;;;;6301227;28;20008;-81
2023/11/28 07:02:46;;;;;;;;;;;;;;;;;;6286255;28;19999;-82
2023/11/28 07:05:46;;;;;;;;;;;;;;;;;;6317668;28;19951;-81
2023/11/28 07:08:46;;;;;;;;;;;;;;;;;;6302269;28;20021;-81
2023/11/28 07:11:46;;;;;;;;;;;;;;;;;;6287024;28;20019;-81
2023/11/28 07:14:46;;;;;;;;;;;;;;;;;;6302598;28;19927;-82
2023/11/28 07:17:47;;;;;;;;;;;;;;;;;;6292362;28;19931;-81
2023/11/28 07:20:47;;;;;;;;;;;;;;;;;;6297038;28;19964;-81
2023/11/28 07:23:47;;;;;;;;;;;;;;;;;;6303624;28;20475;-81
2023/11/28 07:26:48;;;;;;;;;;;;;;;;;;6298171;28;19912;-81
2023/11/28 07:29:48;;;;;;;;;;;;;;;;;;6298618;28;19928;-82
2023/11/28 07:32:48;;;;;;;;;;;;;;;;;;6296313;28;19920;-82
2023/11/28 07:35:48;;;;;;;;;;;;;;;;;;6299078;28;20388;-82
2023/11/28 07:38:49;;;;;;;;;;;;;;;;;;6295684;28;20280;-82
2023/11/28 07:41:49;;;;;;;;;;;;;;;;;;6301479;28;19912;-82
2023/11/28 07:44:50;;;;;;;;;;;;;;;;;;6301662;28;19927;-83
2023/11/28 07:47:50;;;;;;;;;;;;;;;;;;6289341;28;19912;-83
2023/11/28 07:50:50;;;;;;;;;;;;;;;;;;6301654;28;19920;-83
2023/11/28 07:53:50;;;;;;;;;;;;;;;;;;6299310;28;19966;-83
2023/11/28 07:56:50;;;;;;;;;;;;;;;;;;6283295;28;19916;-83
2023/11/28 07:59:50;;;;;;;;;;;;;;;;;;6291631;28;19919;-83
2023/11/28 08:02:50;;;;;;;;;;;;;;;;;;6280976;28;20452;-83
2023/11/28 08:05:50;;;;;;;;;;;;;;;;;;6298892;28;20341;-84
2023/11/28 08:08:51;;;;;;;;;;;;;;;;;;6304079;28;19979;-83
2023/11/28 08:11:51;;;;;;;;;;;;;;;;;;6287698;28;19940;-83
2023/11/28 08:14:51;;;;;;;;;;;;;;;;;;6301122;28;20532;-83
2023/11/28 08:17:51;;;;;;;;;;;;;;;;;;6281117;28;19909;-82
2023/11/28 08:20:51;;;;;;;;;;;;;;;;;;6302047;28;19908;-83
2023/11/28 08:23:51;;;;;;;;;;;;;;;;;;6318238;28;19912;-82
2023/11/28 08:26:51;;;;;;;;;;;;;;;;;;6302126;28;19912;-83
2023/11/28 08:29:52;;;;;;;;;;;;;;;;;;6301396;28;19920;-83
2023/11/28 08:32:52;;;;;;;;;;;;;;;;;;6320819;28;20285;-83
2023/11/28 08:35:52;;;;;;;;;;;;;;;;;;6307786;28;19999;-83
2023/11/28 08:38:52;;;;;;;;;;;;;;;;;;6333042;28;20003;-83
2023/11/28 08:41:54;;;;;;;;;;;;;;;;;;6313987;28;19996;-83
2023/11/28 08:44:54;;;;;;;;;;;;;;;;;;6306313;28;19947;-83
2023/11/28 08:47:54;;;;;;;;;;;;;;;;;;6301454;28;19916;-83
2023/11/28 08:50:54;;;;;;;;;;;;;;;;;;6299038;28;19909;-83
2023/11/28 08:53:54;;;;;;;;;;;;;;;;;;6319519;28;19916;-84
2023/11/28 08:56:55;;;;;;;;;;;;;;;;;;6321393;28;19916;-84
2023/11/28 08:59:55;;;;;;;;;;;;;;;;;;6323632;28;19911;-84
2023/11/28 09:02:55;;;;;;;;;;;;;;;;;;6311511;28;19920;-84
2023/11/28 09:05:55;;;;;;;;;;;;;;;;;;6323276;28;19919;-84
2023/11/28 09:08:56;;;;;;;;;;;;;;;;;;6323593;28;19920;-84
2023/11/28 09:11:56;;;;;;;;;;;;;;;;;;6318582;28;19912;-83
2023/11/28 09:14:56;;;;;;;;;;;;;;;;;;6308791;28;19908;-84
2023/11/28 09:17:56;;;;;;;;;;;;;;;;;;6322960;28;19912;-83
2023/11/28 09:20:56;;;;;;;;;;;;;;;;;;6317433;28;19908;-84
2023/11/28 09:23:57;;;;;;;;;;;;;;;;;;6311358;28;20007;-84
2023/11/28 09:26:57;;;;;;;;;;;;;;;;;;6303643;28;19947;-84
2023/11/28 09:29:57;;;;;;;;;;;;;;;;;;6286089;28;19951;-84
2023/11/28 09:32:57;;;;;;;;;;;;;;;;;;6308350;28;19955;-84
2023/11/28 09:35:57;;;;;;;;;;;;;;;;;;6287299;28;20281;-85
2023/11/28 09:39:03;;;;;;;;;;;;;;;;;;6300706;28;20312;-85
2023/11/28 09:42:05;;;;;;;;;;;;;;;;;;6300351;28;19974;-85
2023/11/28 09:45:05;;;;;;;;;;;;;;;;;;6298298;28;19974;-84
2023/11/28 09:48:06;;;;;;;;;;;;;;;;;;6315403;28;19965;-85
2023/11/28 09:51:06;;;;;;;;;;;;;;;;;;6305091;28;20395;-84
2023/11/28 09:54:07;;;;;;;;;;;;;;;;;;6304501;28;20373;-84
2023/11/28 09:57:07;;;;;;;;;;;;;;;;;;6322302;28;19949;-84
2023/11/28 10:00:10;;;;;;;;;;;;;;;;;;6310144;28;19986;-84
2023/11/28 10:03:11;;;;;;;;;;;;;;;;;;6307667;28;19963;-84
2023/11/28 10:06:11;;;;;;;;;;;;;;;;;;6312725;28;19918;-84
2023/11/28 10:09:11;;;;;;;;;;;;;;;;;;6298071;28;20015;-84
2023/11/28 10:12:15;;;;;;;;;;;;;;;;;;6312846;28;20380;-84
2023/11/28 10:15:17;;;;;;;;;;;;;;;;;;6297458;28;19916;-85
2023/11/28 10:18:17;;;;;;;;;;;;;;;;;;6300555;28;20368;-84
2023/11/28 10:21:17;;;;;;;;;;;;;;;;;;6300387;28;19927;-84
2023/11/28 10:24:18;;;;;;;;;;;;;;;;;;6298059;28;19971;-84
2023/11/28 10:27:18;;;;;;;;;;;;;;;;;;6297627;28;19982;-84
2023/11/28 10:30:21;;;;;;;;;;;;;;;;;;6309922;28;19920;-83
2023/11/28 10:33:21;;;;;;;;;;;;;;;;;;6303852;28;19952;-82
2023/11/28 10:36:21;;;;;;;;;;;;;;;;;;6305572;28;19961;-82
2023/11/28 10:39:22;;;;;;;;;;;;;;;;;;6304419;28;20003;-82
2023/11/28 10:42:22;;;;;;;;;;;;;;;;;;6311193;28;19913;-82
2023/11/28 10:45:22;;;;;;;;;;;;;;;;;;6300689;28;19912;-83
2023/11/28 10:48:22;;;;;;;;;;;;;;;;;;6310629;28;19924;-83
2023/11/28 10:51:23;;;;;;;;;;;;;;;;;;6322021;28;19912;-83
2023/11/28 10:54:23;;;;;;;;;;;;;;;;;;6322822;28;19919;-82
2023/11/28 10:57:23;;;;;;;;;;;;;;;;;;6310149;28;20380;-82
2023/11/28 11:00:24;;;;;;;;;;;;;;;;;;6319406;28;19960;-84
2023/11/28 11:03:24;;;;;;;;;;;;;;;;;;6317238;28;20029;-83
2023/11/28 11:06:24;;;;;;;;;;;;;;;;;;6305150;28;19916;-83
2023/11/28 11:09:25;;;;;;;;;;;;;;;;;;6322161;28;20321;-83
2023/11/28 11:12:25;;;;;;;;;;;;;;;;;;6306311;28;20354;-81
2023/11/28 11:15:26;;;;;;;;;;;;;;;;;;6303055;28;20368;-81
2023/11/28 11:18:26;;;;;;;;;;;;;;;;;;6306995;28;19908;-82
2023/11/28 11:21:26;;;;;;;;;;;;;;;;;;6308434;28;19950;-82
2023/11/28 11:24:27;;;;;;;;;;;;;;;;;;6307411;28;20022;-82
2023/11/28 11:27:28;;;;;;;;;;;;;;;;;;6322096;28;20398;-82
2023/11/28 11:30:28;;;;;;;;;;;;;;;;;;6319990;28;19920;-83
2023/11/28 11:33:28;;;;;;;;;;;;;;;;;;6303467;28;19959;-83
2023/11/28 11:36:28;;;;;;;;;;;;;;;;;;6306395;28;20266;-83
2023/11/28 11:39:29;;;;;;;;;;;;;;;;;;6312278;28;19947;-83
2023/11/28 11:42:29;;;;;;;;;;;;;;;;;;6300855;28;19908;-82
2023/11/28 11:45:29;;;;;;;;;;;;;;;;;;6315250;28;20011;-83
2023/11/28 11:48:29;;;;;;;;;;;;;;;;;;6285603;28;20008;-81
2023/11/28 11:51:29;;;;;;;;;;;;;;;;;;6321710;28;20003;-84
2023/11/28 11:54:29;;;;;;;;;;;;;;;;;;6306250;28;20003;-83
2023/11/28 11:57:29;;;;;;;;;;;;;;;;;;6294074;28;20010;-83
2023/11/28 12:00:30;;;;;;;;;;;;;;;;;;6315880;28;19999;-83
2023/11/28 12:03:30;;;;;;;;;;;;;;;;;;6320539;28;20010;-84
2023/11/28 12:06:30;;;;;;;;;;;;;;;;;;6326257;28;19998;-83
2023/11/28 12:09:30;;;;;;;;;;;;;;;;;;6296707;28;20018;-82
2023/11/28 12:12:30;;;;;;;;;;;;;;;;;;6315190;28;19999;-83
2023/11/28 12:15:31;;;;;;;;;;;;;;;;;;6323961;28;19954;-83
2023/11/28 12:18:31;;;;;;;;;;;;;;;;;;6326119;28;19969;-83
2023/11/28 12:21:31;;;;;;;;;;;;;;;;;;6323357;28;19929;-83
2023/11/28 12:24:31;;;;;;;;;;;;;;;;;;6322450;28;19913;-82
2023/11/28 12:27:31;;;;;;;;;;;;;;;;;;6306574;28;20371;-82
2023/11/28 12:30:32;;;;;;;;;;;;;;;;;;6296512;28;19925;-82
2023/11/28 12:33:34;;;;;;;;;;;;;;;;;;6299970;28;20422;-83
2023/11/28 12:36:34;;;;;;;;;;;;;;;;;;6300410;28;20007;-83
2023/11/28 12:39:35;;;;;;;;;;;;;;;;;;6294021;28;19909;-82
2023/11/28 12:42:35;;;;;;;;;;;;;;;;;;6317589;28;19927;-83
2023/11/28 12:45:35;;;;;;;;;;;;;;;;;;6312536;28;19919;-82
2023/11/28 12:48:35;;;;;;;;;;;;;;;;;;6321886;28;20062;-83
2023/11/28 12:51:35;;;;;;;;;;;;;;;;;;6301616;28;19923;-83
2023/11/28 12:54:36;;;;;;;;;;;;;;;;;;6320088;28;19945;-82
2023/11/28 12:57:36;;;;;;;;;;;;;;;;;;6310104;28;19912;-82
2023/11/28 13:00:36;;;;;;;;;;;;;;;;;;6299645;28;20343;-82
2023/11/28 13:03:39;;;;;;;;;;;;;;;;;;6300982;28;20001;-82
2023/11/28 13:06:42;;;;;;;;;;;;;;;;;;6299724;28;19909;-82
2023/11/28 13:09:42;;;;;;;;;;;;;;;;;;6317340;27;19950;-82
2023/11/28 13:12:42;;;;;;;;;;;;;;;;;;6301035;28;19921;-82
2023/11/28 13:15:42;;;;;;;;;;;;;;;;;;6321241;28;20081;-83
2023/11/28 13:18:43;;;;;;;;;;;;;;;;;;6324179;28;19923;-83
2023/11/28 13:21:43;;;;;;;;;;;;;;;;;;6324611;28;19908;-82
2023/11/28 13:24:43;;;;;;;;;;;;;;;;;;6319571;28;19965;-83
2023/11/28 13:27:43;;;;;;;;;;;;;;;;;;6306113;28;19919;-82
2023/11/28 13:30:43;;;;;;;;;;;;;;;;;;6322434;28;19931;-83
2023/11/28 13:33:45;;;;;;;;;;;;;;;;;;6324808;28;19908;-83
2023/11/28 13:36:46;;;;;;;;;;;;;;;;;;6309103;28;19969;-82
2023/11/28 13:39:48;;;;;;;;;;;;;;;;;;6299297;28;19912;-82
2023/11/28 13:42:48;;;;;;;;;;;;;;;;;;6303663;28;19912;-83
2023/11/28 13:45:48;;;;;;;;;;;;;;;;;;6297205;28;19948;-83
2023/11/28 13:48:49;;;;;;;;;;;;;;;;;;6298705;28;19912;-82
2023/11/28 13:51:49;;;;;;;;;;;;;;;;;;6297901;28;20369;-82
2023/11/28 13:54:50;;;;;;;;;;;;;;;;;;6323998;28;20325;-82
2023/11/28 13:57:50;;;;;;;;;;;;;;;;;;6306555;28;19909;-82
2023/11/28 14:00:52;;;;;;;;;;;;;;;;;;6316599;28;20384;-83
2023/11/28 14:03:52;;;;;;;;;;;;;;;;;;6323222;28;19972;-82
2023/11/28 14:06:52;;;;;;;;;;;;;;;;;;6321860;28;19912;-82
2023/11/28 14:09:52;;;;;;;;;;;;;;;;;;6322540;28;19920;-82
2023/11/28 14:12:52;;;;;;;;;;;;;;;;;;6316135;28;19918;-82
2023/11/28 14:15:52;;;;;;;;;;;;;;;;;;6321654;28;19912;-82
2023/11/28 14:18:54;;;;;;;;;;;;;;;;;;6320786;28;20057;-82
2023/11/28 14:21:54;;;;;;;;;;;;;;;;;;6310078;28;20003;-82
2023/11/28 14:24:54;;;;;;;;;;;;;;;;;;6304973;28;20500;-83
2023/11/28 14:27:54;;;;;;;;;;;;;;;;;;6321650;28;19959;-82
2023/11/28 14:30:54;;;;;;;;;;;;;;;;;;6318705;28;20016;-82
2023/11/28 14:33:55;;;;;;;;;;;;;;;;;;6322810;28;20042;-82
2023/11/28 14:36:55;;;;;;;;;;;;;;;;;;6313585;28;20578;-82
2023/11/28 14:39:55;;;;;;;;;;;;;;;;;;6304767;28;19923;-83
2023/11/28 14:42:55;;;;;;;;;;;;;;;;;;6321111;28;19974;-82
2023/11/28 14:45:55;;;;;;;;;;;;;;;;;;6295915;28;19908;-82
2023/11/28 14:49:01;;;;;;;;;;;;;;;;;;6322864;28;20010;-82
2023/11/28 14:52:01;;;;;;;;;;;;;;;;;;6322538;28;19908;-82
2023/11/28 14:55:02;;;;;;;;;;;;;;;;;;6294762;28;19923;-82
2023/11/28 14:58:02;;;;;;;;;;;;;;;;;;6289592;28;19913;-82
2023/11/28 15:01:02;;;;;;;;;;;;;;;;;;6305638;28;19916;-82
2023/11/28 15:04:03;;;;;;;;;;;;;;;;;;6320725;28;20022;-83
2023/11/28 15:07:03;;;;;;;;;;;;;;;;;;6305199;28;20289;-83
2023/11/28 15:10:03;;;;;;;;;;;;;;;;;;6297569;28;19917;-82
2023/11/28 15:13:06;;;;;;;;;;;;;;;;;;6304275;28;19915;-82
2023/11/28 15:16:06;;;;;;;;;;;;;;;;;;6295842;28;19966;-82
2023/11/28 15:19:06;;;;;;;;;;;;;;;;;;6311377;28;19912;-82
2023/11/28 15:22:08;;;;;;;;;;;;;;;;;;6296661;28;19935;-82
2023/11/28 15:25:08;;;;;;;;;;;;;;;;;;6298600;28;19917;-82
2023/11/28 15:28:11;;;;;;;;;;;;;;;;;;6308713;28;19908;-82
2023/11/28 15:31:11;;;;;;;;;;;;;;;;;;6322230;28;19978;-82
2023/11/28 15:34:11;;;;;;;;;;;;;;;;;;6315566;28;19912;-82
2023/11/28 15:37:11;;;;;;;;;;;;;;;;;;6319061;28;20004;-82
2023/11/28 15:40:11;;;;;;;;;;;;;;;;;;6300766;28;20423;-82
2023/11/28 15:43:11;;;;;;;;;;;;;;;;;;6309198;28;20354;-82
2023/11/28 15:46:11;;;;;;;;;;;;;;;;;;6308475;28;19912;-82
2023/11/28 15:49:12;;;;;;;;;;;;;;;;;;6320355;28;19926;-82
2023/11/28 15:52:13;;;;;;;;;;;;;;;;;;6323844;28;19912;-81
2023/11/28 15:55:13;;;;;;;;;;;;;;;;;;6316078;28;19970;-82
2023/11/28 15:58:14;;;;;;;;;;;;;;;;;;6308303;28;20373;-82
2023/11/28 16:01:14;;;;;;;;;;;;;;;;;;6324514;28;19912;-81
2023/11/28 16:04:14;;;;;;;;;;;;;;;;;;6326222;28;20002;-81
2023/11/28 16:07:14;;;;;;;;;;;;;;;;;;6323265;28;20031;-81
2023/11/28 16:10:14;;;;;;;;;;;;;;;;;;6317003;28;20018;-81
2023/11/28 16:13:15;;;;;;;;;;;;;;;;;;6324561;28;19919;-80
2023/11/28 16:16:15;;;;;;;;;;;;;;;;;;6323993;28;19912;-81
2023/11/28 16:19:17;;;;;;;;;;;;;;;;;;6302954;28;20403;-81
2023/11/28 16:22:17;;;;;;;;;;;;;;;;;;6323868;28;20353;-81
2023/11/28 16:25:17;;;;;;;;;;;;;;;;;;6319031;28;19912;-82
2023/11/28 16:28:18;;;;;;;;;;;;;;;;;;6311658;28;19921;-82
2023/11/28 16:31:18;;;;;;;;;;;;;;;;;;6311248;28;20022;-82
2023/11/28 16:34:18;;;;;;;;;;;;;;;;;;6323213;28;20032;-82
2023/11/28 16:37:19;;;;;;;;;;;;;;;;;;6305738;28;19913;-82
2023/11/28 16:40:19;;;;;;;;;;;;;;;;;;6299316;28;20280;-83
2023/11/28 16:43:19;;;;;;;;;;;;;;;;;;6298787;28;19909;-81
2023/11/28 16:46:19;;;;;;;;;;;;;;;;;;6316564;28;19919;-82
2023/11/28 16:49:19;;;;;;;;;;;;;;;;;;6292329;28;19927;-81
2023/11/28 16:52:19;;;;;;;;;;;;;;;;;;6317789;28;19912;-82
2023/11/28 16:55:20;;;;;;;;;;;;;;;;;;6326552;28;19923;-82
2023/11/28 16:58:20;;;;;;;;;;;;;;;;;;6314473;28;19913;-82
2023/11/28 17:01:20;;;;;;;;;;;;;;;;;;6314040;28;20271;-83
2023/11/28 17:04:20;;;;;;;;;;;;;;;;;;6323116;28;20374;-83
2023/11/28 17:07:20;;;;;;;;;;;;;;;;;;6323426;28;20002;-83
2023/11/28 17:10:21;;;;;;;;;;;;;;;;;;6305733;28;19920;-85
2023/11/28 17:13:21;;;;;;;;;;;;;;;;;;6310017;28;19919;-84
2023/11/28 17:16:21;;;;;;;;;;;;;;;;;;6292368;28;20474;-84
2023/11/28 17:19:25;;;;;;;;;;;;;;;;;;6299421;28;20004;-84
2023/11/28 17:22:25;;;;;;;;;;;;;;;;;;6322074;28;20467;-83
2023/11/28 17:25:25;;;;;;;;;;;;;;;;;;6319175;28;19957;-84
2023/11/28 17:28:26;;;;;;;;;;;;;;;;;;6325708;28;19920;-83
2023/11/28 17:31:26;;;;;;;;;;;;;;;;;;6316708;28;19920;-83
2023/11/28 17:34:29;;;;;;;;;;;;;;;;;;6303477;28;20469;-83
2023/11/28 17:37:29;;;;;;;;;;;;;;;;;;6307199;28;19916;-83
2023/11/28 17:40:29;;;;;;;;;;;;;;;;;;6314384;28;19912;-83
2023/11/28 17:43:29;;;;;;;;;;;;;;;;;;6308520;28;19912;-84
2023/11/28 17:46:29;;;;;;;;;;;;;;;;;;6311767;28;19912;-84
2023/11/28 17:49:29;;;;;;;;;;;;;;;;;;6312214;28;19920;-84
2023/11/28 17:52:30;;;;;;;;;;;;;;;;;;6299476;28;19912;-84
2023/11/28 17:55:31;;;;;;;;;;;;;;;;;;6305498;28;19912;-83
2023/11/28 17:58:31;;;;;;;;;;;;;;;;;;6316626;28;19974;-84
2023/11/28 18:01:31;;;;;;;;;;;;;;;;;;6302784;28;20376;-84
2023/11/28 18:04:34;;;;;;;;;;;;;;;;;;6323798;28;20369;-84
2023/11/28 18:07:34;;;;;;;;;;;;;;;;;;6303471;28;19927;-84
2023/11/28 18:10:34;;;;;;;;;;;;;;;;;;6302189;28;20387;-83
2023/11/28 18:13:34;;;;;;;;;;;;;;;;;;6300024;28;19916;-83
2023/11/28 18:16:34;;;;;;;;;;;;;;;;;;6314944;28;19923;-83
2023/11/28 18:19:34;;;;;;;;;;;;;;;;;;6317861;28;19935;-83
2023/11/28 18:22:34;;;;;;;;;;;;;;;;;;6318560;28;20304;-84
2023/11/28 18:25:35;;;;;;;;;;;;;;;;;;6304974;28;19965;-84
2023/11/28 18:28:39;;;;;;;;;;;;;;;;;;6321052;28;20035;-84
2023/11/28 18:31:40;;;;;;;;;;;;;;;;;;6310493;28;19920;-84
2023/11/28 18:34:40;;;;;;;;;;;;;;;;;;6322569;28;20013;-84
2023/11/28 18:37:40;;;;;;;;;;;;;;;;;;6322875;28;19909;-84
2023/11/28 18:40:41;;;;;;;;;;;;;;;;;;6322903;28;19912;-83
2023/11/28 18:43:41;;;;;;;;;;;;;;;;;;6301142;28;19908;-85
2023/11/28 18:46:41;;;;;;;;;;;;;;;;;;6296038;28;19917;-86
2023/11/28 18:49:41;;;;;;;;;;;;;;;;;;6305914;28;20019;-87
2023/11/28 18:52:42;;;;;;;;;;;;;;;;;;6322850;28;20454;-88
2023/11/28 18:55:42;;;;;;;;;;;;;;;;;;6315265;28;19920;-88
2023/11/28 18:58:43;;;;;;;;;;;;;;;;;;6309117;28;19916;-88
2023/11/28 19:01:43;;;;;;;;;;;;;;;;;;6321358;28;19916;-88
2023/11/28 19:04:44;;;;;;;;;;;;;;;;;;6317411;28;19916;-88
2023/11/28 19:07:45;;;;;;;;;;;;;;;;;;6303249;28;20373;-87
2023/11/28 19:10:45;;;;;;;;;;;;;;;;;;6303285;28;19928;-88
2023/11/28 19:13:45;;;;;;;;;;;;;;;;;;6304094;28;19927;-87
2023/11/28 19:16:46;;;;;;;;;;;;;;;;;;6305595;28;19916;-87
2023/11/28 19:19:46;;;;;;;;;;;;;;;;;;6317718;28;19969;-87
2023/11/28 19:22:46;;;;;;;;;;;;;;;;;;6297067;28;20003;-88
2023/11/28 19:25:46;;;;;;;;;;;;;;;;;;6285087;28;19971;-87
2023/11/28 19:28:46;;;;;;;;;;;;;;;;;;6297980;28;20016;-87
2023/11/28 19:31:46;;;;;;;;;;;;;;;;;;6311623;28;20050;-86
2023/11/28 19:34:47;;;;;;;;;;;;;;;;;;6308815;28;19913;-88
2023/11/28 19:37:47;;;;;;;;;;;;;;;;;;6315447;28;19982;-88
2023/11/28 19:40:47;;;;;;;;;;;;;;;;;;6311860;28;19919;-88
2023/11/28 19:43:47;;;;;;;;;;;;;;;;;;6301759;28;19947;-89
2023/11/28 19:46:47;;;;;;;;;;;;;;;;;;6306363;28;20466;-89
2023/11/28 19:49:47;;;;;;;;;;;;;;;;;;6303805;28;19959;-89
2023/11/28 19:52:48;;;;;;;;;;;;;;;;;;6311094;28;19963;-88
2023/11/28 19:55:48;;;;;;;;;;;;;;;;;;6297717;28;19951;-88
2023/11/28 19:58:48;;;;;;;;;;;;;;;;;;6314868;28;19912;-87
2023/11/28 20:01:48;;;;;;;;;;;;;;;;;;6321630;28;19924;-87
2023/11/28 20:04:49;;;;;;;;;;;;;;;;;;6321287;28;19920;-87
2023/11/28 20:07:49;;;;;;;;;;;;;;;;;;6314468;28;20264;-88
2023/11/28 20:10:49;;;;;;;;;;;;;;;;;;6325099;28;19927;-88
2023/11/28 20:13:49;;;;;;;;;;;;;;;;;;6327387;28;19912;-88
2023/11/28 20:16:50;;;;;;;;;;;;;;;;;;6327064;28;19962;-87
2023/11/28 20:19:50;;;;;;;;;;;;;;;;;;6352279;28;19908;-87
2023/11/28 20:22:51;;;;;;;;;;;;;;;;;;6350792;28;20378;-88
2023/11/28 20:25:53;;;;;;;;;;;;;;;;;;6326124;28;19912;-88
2023/11/28 20:28:53;;;;;;;;;;;;;;;;;;6317738;28;19927;-88
2023/11/28 20:31:55;;;;;;;;;;;;;;;;;;6297803;28;19920;-83